sensor_id;sensor_type;location;lat;lon;timestamp;P1;durP1;ratioP1;P2;durP2;ratioP2
68866;SDS011;56451;44.804;20.476;2023-10-13T00:00:38;17.15;;;11.27;;
68866;SDS011;56451;44.804;20.476;2023-10-13T00:03:07;18.88;;;10.55;;
68866;SDS011;56451;44.804;20.476;2023-10-13T00:05:44;21.13;;;10.40;;
68866;SDS011;56451;44.804;20.476;2023-10-13T00:08:10;19.20;;;10.65;;
68866;SDS011;56451;44.804;20.476;2023-10-13T00:10:37;20.13;;;9.98;;
68866;SDS011;56451;44.804;20.476;2023-10-13T00:13:03;21.00;;;9.90;;
68866;SDS011;56451;44.804;20.476;2023-10-13T00:15:46;17.13;;;9.30;;
68866;SDS011;56451;44.804;20.476;2023-10-13T00:18:29;14.57;;;8.90;;
68866;SDS011;56451;44.804;20.476;2023-10-13T00:20:59;14.80;;;8.80;;
68866;SDS011;56451;44.804;20.476;2023-10-13T00:23:26;15.65;;;8.88;;
68866;SDS011;56451;44.804;20.476;2023-10-13T00:25:58;17.00;;;8.55;;
68866;SDS011;56451;44.804;20.476;2023-10-13T00:28:27;16.90;;;9.55;;
68866;SDS011;56451;44.804;20.476;2023-10-13T00:31:01;16.60;;;8.43;;
68866;SDS011;56451;44.804;20.476;2023-10-13T00:33:36;15.45;;;8.45;;
68866;SDS011;56451;44.804;20.476;2023-10-13T00:36:03;16.25;;;8.70;;
68866;SDS011;56451;44.804;20.476;2023-10-13T00:38:30;15.32;;;9.25;;
68866;SDS011;56451;44.804;20.476;2023-10-13T00:40:57;17.50;;;9.30;;
68866;SDS011;56451;44.804;20.476;2023-10-13T00:43:31;17.65;;;9.40;;
68866;SDS011;56451;44.804;20.476;2023-10-13T00:46:00;18.35;;;10.13;;
68866;SDS011;56451;44.804;20.476;2023-10-13T00:48:30;15.85;;;8.90;;
68866;SDS011;56451;44.804;20.476;2023-10-13T00:51:02;13.23;;;8.18;;
68866;SDS011;56451;44.804;20.476;2023-10-13T00:53:35;13.93;;;8.37;;
68866;SDS011;56451;44.804;20.476;2023-10-13T00:56:10;15.18;;;8.68;;
68866;SDS011;56451;44.804;20.476;2023-10-13T00:58:53;18.40;;;8.93;;
68866;SDS011;56451;44.804;20.476;2023-10-13T01:01:23;16.42;;;9.00;;
68866;SDS011;56451;44.804;20.476;2023-10-13T01:03:58;23.88;;;10.48;;
68866;SDS011;56451;44.804;20.476;2023-10-13T01:06:29;17.97;;;10.10;;
68866;SDS011;56451;44.804;20.476;2023-10-13T01:09:04;14.02;;;9.43;;
68866;SDS011;56451;44.804;20.476;2023-10-13T01:11:47;18.52;;;10.45;;
68866;SDS011;56451;44.804;20.476;2023-10-13T01:14:18;16.30;;;10.52;;
68866;SDS011;56451;44.804;20.476;2023-10-13T01:16:46;20.50;;;11.35;;
68866;SDS011;56451;44.804;20.476;2023-10-13T01:19:13;21.17;;;11.40;;
68866;SDS011;56451;44.804;20.476;2023-10-13T01:21:43;18.48;;;10.48;;
68866;SDS011;56451;44.804;20.476;2023-10-13T01:24:14;17.88;;;10.13;;
68866;SDS011;56451;44.804;20.476;2023-10-13T01:26:40;18.50;;;9.52;;
68866;SDS011;56451;44.804;20.476;2023-10-13T01:29:08;16.50;;;9.57;;
68866;SDS011;56451;44.804;20.476;2023-10-13T01:31:40;16.77;;;10.03;;
68866;SDS011;56451;44.804;20.476;2023-10-13T01:34:14;18.50;;;9.48;;
68866;SDS011;56451;44.804;20.476;2023-10-13T01:39:23;17.88;;;9.90;;
68866;SDS011;56451;44.804;20.476;2023-10-13T01:41:54;18.60;;;10.35;;
68866;SDS011;56451;44.804;20.476;2023-10-13T01:44:24;19.90;;;9.47;;
68866;SDS011;56451;44.804;20.476;2023-10-13T01:46:56;18.40;;;10.13;;
68866;SDS011;56451;44.804;20.476;2023-10-13T01:49:32;18.17;;;10.10;;
68866;SDS011;56451;44.804;20.476;2023-10-13T01:52:27;14.57;;;10.15;;
68866;SDS011;56451;44.804;20.476;2023-10-13T01:54:55;17.23;;;10.02;;
68866;SDS011;56451;44.804;20.476;2023-10-13T01:57:23;17.40;;;10.30;;
68866;SDS011;56451;44.804;20.476;2023-10-13T01:59:49;14.55;;;9.52;;
68866;SDS011;56451;44.804;20.476;2023-10-13T02:02:16;19.45;;;10.73;;
68866;SDS011;56451;44.804;20.476;2023-10-13T02:04:52;18.95;;;10.52;;
68866;SDS011;56451;44.804;20.476;2023-10-13T02:07:23;17.23;;;9.68;;
68866;SDS011;56451;44.804;20.476;2023-10-13T02:10:00;17.20;;;9.63;;
68866;SDS011;56451;44.804;20.476;2023-10-13T02:12:30;14.55;;;9.75;;
68866;SDS011;56451;44.804;20.476;2023-10-13T02:15:11;18.35;;;12.05;;
68866;SDS011;56451;44.804;20.476;2023-10-13T02:17:39;16.55;;;10.10;;
68866;SDS011;56451;44.804;20.476;2023-10-13T02:20:08;18.20;;;10.38;;
68866;SDS011;56451;44.804;20.476;2023-10-13T02:22:41;14.97;;;10.33;;
68866;SDS011;56451;44.804;20.476;2023-10-13T02:25:16;17.63;;;10.93;;
68866;SDS011;56451;44.804;20.476;2023-10-13T02:28:00;15.00;;;10.05;;
68866;SDS011;56451;44.804;20.476;2023-10-13T02:30:40;17.45;;;9.45;;
68866;SDS011;56451;44.804;20.476;2023-10-13T02:33:11;17.60;;;10.48;;
68866;SDS011;56451;44.804;20.476;2023-10-13T02:35:38;19.00;;;10.47;;
68866;SDS011;56451;44.804;20.476;2023-10-13T02:38:08;16.33;;;10.02;;
68866;SDS011;56451;44.804;20.476;2023-10-13T02:40:37;17.00;;;10.63;;
68866;SDS011;56451;44.804;20.476;2023-10-13T02:43:04;16.48;;;9.73;;
68866;SDS011;56451;44.804;20.476;2023-10-13T02:45:32;16.23;;;10.38;;
68866;SDS011;56451;44.804;20.476;2023-10-13T02:48:02;22.63;;;10.90;;
68866;SDS011;56451;44.804;20.476;2023-10-13T02:50:39;17.50;;;11.40;;
68866;SDS011;56451;44.804;20.476;2023-10-13T02:53:09;18.52;;;11.43;;
68866;SDS011;56451;44.804;20.476;2023-10-13T02:55:59;18.48;;;12.00;;
68866;SDS011;56451;44.804;20.476;2023-10-13T02:58:30;21.42;;;12.75;;
68866;SDS011;56451;44.804;20.476;2023-10-13T03:01:07;23.17;;;14.30;;
68866;SDS011;56451;44.804;20.476;2023-10-13T03:03:43;21.13;;;13.30;;
68866;SDS011;56451;44.804;20.476;2023-10-13T03:06:15;22.92;;;15.15;;
68866;SDS011;56451;44.804;20.476;2023-10-13T03:08:42;22.05;;;13.25;;
68866;SDS011;56451;44.804;20.476;2023-10-13T03:11:09;26.73;;;14.80;;
68866;SDS011;56451;44.804;20.476;2023-10-13T03:13:36;22.50;;;13.93;;
68866;SDS011;56451;44.804;20.476;2023-10-13T03:16:14;26.55;;;14.82;;
68866;SDS011;56451;44.804;20.476;2023-10-13T03:18:46;23.88;;;14.32;;
68866;SDS011;56451;44.804;20.476;2023-10-13T03:21:22;22.45;;;15.25;;
68866;SDS011;56451;44.804;20.476;2023-10-13T03:23:59;23.17;;;14.43;;
68866;SDS011;56451;44.804;20.476;2023-10-13T03:26:32;24.67;;;15.00;;
68866;SDS011;56451;44.804;20.476;2023-10-13T03:29:01;24.83;;;13.90;;
68866;SDS011;56451;44.804;20.476;2023-10-13T03:34:31;21.88;;;14.50;;
68866;SDS011;56451;44.804;20.476;2023-10-13T03:36:57;23.42;;;14.00;;
68866;SDS011;56451;44.804;20.476;2023-10-13T03:39:23;20.17;;;13.47;;
68866;SDS011;56451;44.804;20.476;2023-10-13T03:41:55;20.10;;;13.32;;
68866;SDS011;56451;44.804;20.476;2023-10-13T03:44:23;21.23;;;14.10;;
68866;SDS011;56451;44.804;20.476;2023-10-13T03:46:48;23.33;;;13.68;;
68866;SDS011;56451;44.804;20.476;2023-10-13T03:49:15;21.38;;;13.40;;
68866;SDS011;56451;44.804;20.476;2023-10-13T03:51:49;26.60;;;13.53;;
68866;SDS011;56451;44.804;20.476;2023-10-13T03:54:16;23.80;;;13.43;;
68866;SDS011;56451;44.804;20.476;2023-10-13T03:56:42;21.98;;;13.68;;
68866;SDS011;56451;44.804;20.476;2023-10-13T03:59:10;21.20;;;12.77;;
68866;SDS011;56451;44.804;20.476;2023-10-13T04:01:44;23.67;;;13.30;;
68866;SDS011;56451;44.804;20.476;2023-10-13T04:04:14;23.57;;;11.87;;
68866;SDS011;56451;44.804;20.476;2023-10-13T04:06:41;24.95;;;11.85;;
68866;SDS011;56451;44.804;20.476;2023-10-13T04:09:27;20.02;;;11.80;;
68866;SDS011;56451;44.804;20.476;2023-10-13T04:11:57;24.77;;;12.55;;
68866;SDS011;56451;44.804;20.476;2023-10-13T04:14:38;20.30;;;11.30;;
68866;SDS011;56451;44.804;20.476;2023-10-13T04:17:24;19.80;;;12.70;;
68866;SDS011;56451;44.804;20.476;2023-10-13T04:19:55;23.05;;;13.52;;
68866;SDS011;56451;44.804;20.476;2023-10-13T04:22:34;20.38;;;12.98;;
68866;SDS011;56451;44.804;20.476;2023-10-13T04:25:15;19.60;;;11.98;;
68866;SDS011;56451;44.804;20.476;2023-10-13T04:28:00;20.90;;;12.60;;
68866;SDS011;56451;44.804;20.476;2023-10-13T04:30:39;22.37;;;12.83;;
68866;SDS011;56451;44.804;20.476;2023-10-13T04:33:26;18.55;;;11.82;;
68866;SDS011;56451;44.804;20.476;2023-10-13T04:36:10;21.15;;;12.57;;
68866;SDS011;56451;44.804;20.476;2023-10-13T04:38:40;19.33;;;12.18;;
68866;SDS011;56451;44.804;20.476;2023-10-13T04:41:28;19.50;;;12.60;;
68866;SDS011;56451;44.804;20.476;2023-10-13T04:46:53;23.83;;;12.35;;
68866;SDS011;56451;44.804;20.476;2023-10-13T04:49:34;19.25;;;12.45;;
68866;SDS011;56451;44.804;20.476;2023-10-13T04:52:12;21.65;;;13.35;;
68866;SDS011;56451;44.804;20.476;2023-10-13T04:54:52;21.65;;;13.32;;
68866;SDS011;56451;44.804;20.476;2023-10-13T04:57:25;23.90;;;13.60;;
68866;SDS011;56451;44.804;20.476;2023-10-13T05:00:00;19.85;;;12.98;;
68866;SDS011;56451;44.804;20.476;2023-10-13T05:02:40;22.85;;;13.10;;
68866;SDS011;56451;44.804;20.476;2023-10-13T05:05:21;25.75;;;13.75;;
68866;SDS011;56451;44.804;20.476;2023-10-13T05:07:50;21.48;;;14.35;;
68866;SDS011;56451;44.804;20.476;2023-10-13T05:10:35;26.23;;;14.37;;
68866;SDS011;56451;44.804;20.476;2023-10-13T05:13:20;22.10;;;13.55;;
68866;SDS011;56451;44.804;20.476;2023-10-13T05:16:04;27.85;;;14.52;;
68866;SDS011;56451;44.804;20.476;2023-10-13T05:18:49;20.30;;;13.27;;
68866;SDS011;56451;44.804;20.476;2023-10-13T05:21:33;20.42;;;13.18;;
68866;SDS011;56451;44.804;20.476;2023-10-13T05:24:18;26.23;;;13.90;;
68866;SDS011;56451;44.804;20.476;2023-10-13T05:27:02;27.98;;;13.43;;
68866;SDS011;56451;44.804;20.476;2023-10-13T05:29:47;26.10;;;14.60;;
68866;SDS011;56451;44.804;20.476;2023-10-13T05:32:33;21.38;;;13.35;;
68866;SDS011;56451;44.804;20.476;2023-10-13T05:35:19;22.05;;;13.82;;
68866;SDS011;56451;44.804;20.476;2023-10-13T05:38:04;27.53;;;15.10;;
68866;SDS011;56451;44.804;20.476;2023-10-13T05:40:56;22.50;;;13.27;;
68866;SDS011;56451;44.804;20.476;2023-10-13T05:43:41;26.40;;;14.00;;
68866;SDS011;56451;44.804;20.476;2023-10-13T05:46:26;25.15;;;13.38;;
68866;SDS011;56451;44.804;20.476;2023-10-13T05:48:55;23.92;;;12.88;;
68866;SDS011;56451;44.804;20.476;2023-10-13T05:51:23;25.33;;;13.23;;
68866;SDS011;56451;44.804;20.476;2023-10-13T05:54:05;22.92;;;12.70;;
68866;SDS011;56451;44.804;20.476;2023-10-13T05:56:48;22.52;;;12.43;;
68866;SDS011;56451;44.804;20.476;2023-10-13T05:59:35;23.73;;;12.30;;
68866;SDS011;56451;44.804;20.476;2023-10-13T06:02:22;22.48;;;11.75;;
68866;SDS011;56451;44.804;20.476;2023-10-13T06:05:11;22.07;;;11.50;;
68866;SDS011;56451;44.804;20.476;2023-10-13T06:07:57;23.05;;;12.18;;
68866;SDS011;56451;44.804;20.476;2023-10-13T06:10:42;26.15;;;13.02;;
68866;SDS011;56451;44.804;20.476;2023-10-13T06:13:27;27.25;;;13.30;;
68866;SDS011;56451;44.804;20.476;2023-10-13T06:16:13;23.95;;;12.60;;
68866;SDS011;56451;44.804;20.476;2023-10-13T06:19:01;18.57;;;11.80;;
68866;SDS011;56451;44.804;20.476;2023-10-13T06:21:46;20.42;;;11.77;;
68866;SDS011;56451;44.804;20.476;2023-10-13T06:24:30;24.88;;;11.65;;
68866;SDS011;56451;44.804;20.476;2023-10-13T06:27:15;25.30;;;12.25;;
68866;SDS011;56451;44.804;20.476;2023-10-13T06:30:03;24.48;;;11.95;;
68866;SDS011;56451;44.804;20.476;2023-10-13T06:32:32;19.27;;;11.63;;
68866;SDS011;56451;44.804;20.476;2023-10-13T06:34:59;20.08;;;11.13;;
68866;SDS011;56451;44.804;20.476;2023-10-13T06:37:32;21.00;;;11.40;;
68866;SDS011;56451;44.804;20.476;2023-10-13T06:39:59;16.95;;;10.55;;
68866;SDS011;56451;44.804;20.476;2023-10-13T06:42:48;20.15;;;11.02;;
68866;SDS011;56451;44.804;20.476;2023-10-13T06:45:14;22.43;;;11.23;;
68866;SDS011;56451;44.804;20.476;2023-10-13T06:47:43;21.73;;;10.45;;
68866;SDS011;56451;44.804;20.476;2023-10-13T06:50:10;19.63;;;10.32;;
68866;SDS011;56451;44.804;20.476;2023-10-13T06:52:47;17.45;;;9.55;;
68866;SDS011;56451;44.804;20.476;2023-10-13T06:55:14;19.07;;;10.07;;
68866;SDS011;56451;44.804;20.476;2023-10-13T06:57:43;22.80;;;9.25;;
68866;SDS011;56451;44.804;20.476;2023-10-13T07:00:10;18.23;;;8.93;;
68866;SDS011;56451;44.804;20.476;2023-10-13T07:02:47;20.95;;;9.15;;
68866;SDS011;56451;44.804;20.476;2023-10-13T07:05:17;17.05;;;8.77;;
68866;SDS011;56451;44.804;20.476;2023-10-13T07:07:44;15.67;;;8.80;;
68866;SDS011;56451;44.804;20.476;2023-10-13T07:10:11;19.05;;;9.10;;
68866;SDS011;56451;44.804;20.476;2023-10-13T07:12:38;15.13;;;9.18;;
68866;SDS011;56451;44.804;20.476;2023-10-13T07:15:09;18.15;;;9.32;;
68866;SDS011;56451;44.804;20.476;2023-10-13T07:17:48;18.15;;;9.05;;
68866;SDS011;56451;44.804;20.476;2023-10-13T07:20:20;18.57;;;8.10;;
68866;SDS011;56451;44.804;20.476;2023-10-13T07:22:58;16.92;;;8.70;;
68866;SDS011;56451;44.804;20.476;2023-10-13T07:25:34;17.05;;;8.68;;
68866;SDS011;56451;44.804;20.476;2023-10-13T07:28:04;18.70;;;8.88;;
68866;SDS011;56451;44.804;20.476;2023-10-13T07:30:31;19.50;;;8.27;;
68866;SDS011;56451;44.804;20.476;2023-10-13T07:33:05;17.07;;;8.83;;
68866;SDS011;56451;44.804;20.476;2023-10-13T07:35:31;17.50;;;7.60;;
68866;SDS011;56451;44.804;20.476;2023-10-13T07:38:01;15.63;;;7.85;;
68866;SDS011;56451;44.804;20.476;2023-10-13T07:40:28;17.50;;;8.77;;
68866;SDS011;56451;44.804;20.476;2023-10-13T07:42:54;20.60;;;9.05;;
68866;SDS011;56451;44.804;20.476;2023-10-13T07:45:27;23.03;;;8.73;;
68866;SDS011;56451;44.804;20.476;2023-10-13T07:48:02;19.67;;;8.70;;
68866;SDS011;56451;44.804;20.476;2023-10-13T07:50:42;17.35;;;8.75;;
68866;SDS011;56451;44.804;20.476;2023-10-13T07:53:09;22.35;;;8.35;;
68866;SDS011;56451;44.804;20.476;2023-10-13T07:55:46;19.52;;;9.07;;
68866;SDS011;56451;44.804;20.476;2023-10-13T07:58:23;24.53;;;9.67;;
68866;SDS011;56451;44.804;20.476;2023-10-13T08:00:53;13.95;;;9.00;;
68866;SDS011;56451;44.804;20.476;2023-10-13T08:03:25;21.33;;;10.10;;
68866;SDS011;56451;44.804;20.476;2023-10-13T08:06:00;21.45;;;9.70;;
68866;SDS011;56451;44.804;20.476;2023-10-13T08:08:44;19.02;;;9.35;;
68866;SDS011;56451;44.804;20.476;2023-10-13T08:11:16;18.10;;;9.90;;
68866;SDS011;56451;44.804;20.476;2023-10-13T08:13:49;18.58;;;9.85;;
68866;SDS011;56451;44.804;20.476;2023-10-13T08:16:25;20.52;;;10.52;;
68866;SDS011;56451;44.804;20.476;2023-10-13T08:19:13;19.10;;;10.43;;
68866;SDS011;56451;44.804;20.476;2023-10-13T08:21:46;22.75;;;10.02;;
68866;SDS011;56451;44.804;20.476;2023-10-13T08:24:23;24.57;;;9.83;;
68866;SDS011;56451;44.804;20.476;2023-10-13T08:27:05;29.38;;;10.52;;
68866;SDS011;56451;44.804;20.476;2023-10-13T08:29:41;20.52;;;9.85;;
68866;SDS011;56451;44.804;20.476;2023-10-13T08:32:24;17.15;;;9.10;;
68866;SDS011;56451;44.804;20.476;2023-10-13T08:34:51;20.85;;;9.70;;
68866;SDS011;56451;44.804;20.476;2023-10-13T08:37:20;17.00;;;10.30;;
68866;SDS011;56451;44.804;20.476;2023-10-13T08:39:47;19.63;;;9.55;;
68866;SDS011;56451;44.804;20.476;2023-10-13T08:42:33;18.23;;;9.45;;
68866;SDS011;56451;44.804;20.476;2023-10-13T08:45:13;16.13;;;9.38;;
68866;SDS011;56451;44.804;20.476;2023-10-13T08:47:47;19.95;;;10.73;;
68866;SDS011;56451;44.804;20.476;2023-10-13T08:50:20;20.93;;;9.90;;
68866;SDS011;56451;44.804;20.476;2023-10-13T08:53:06;17.30;;;9.80;;
68866;SDS011;56451;44.804;20.476;2023-10-13T08:58:31;18.42;;;10.45;;
68866;SDS011;56451;44.804;20.476;2023-10-13T09:01:16;21.00;;;10.27;;
68866;SDS011;56451;44.804;20.476;2023-10-13T09:04:02;19.97;;;10.20;;
68866;SDS011;56451;44.804;20.476;2023-10-13T09:06:44;21.35;;;10.15;;
68866;SDS011;56451;44.804;20.476;2023-10-13T09:12:11;17.10;;;9.60;;
68866;SDS011;56451;44.804;20.476;2023-10-13T09:14:38;21.48;;;9.52;;
68866;SDS011;56451;44.804;20.476;2023-10-13T09:17:13;21.33;;;10.50;;
68866;SDS011;56451;44.804;20.476;2023-10-13T09:22:23;19.05;;;9.70;;
68866;SDS011;56451;44.804;20.476;2023-10-13T09:24:56;21.05;;;10.98;;
68866;SDS011;56451;44.804;20.476;2023-10-13T09:27:30;23.88;;;9.48;;
68866;SDS011;56451;44.804;20.476;2023-10-13T09:29:58;20.20;;;10.80;;
68866;SDS011;56451;44.804;20.476;2023-10-13T09:32:44;21.85;;;10.25;;
68866;SDS011;56451;44.804;20.476;2023-10-13T09:35:16;19.45;;;10.13;;
68866;SDS011;56451;44.804;20.476;2023-10-13T09:37:43;19.40;;;9.32;;
68866;SDS011;56451;44.804;20.476;2023-10-13T09:40:14;18.05;;;9.70;;
68866;SDS011;56451;44.804;20.476;2023-10-13T09:42:51;17.27;;;10.00;;
68866;SDS011;56451;44.804;20.476;2023-10-13T09:45:18;20.35;;;9.32;;
68866;SDS011;56451;44.804;20.476;2023-10-13T09:47:52;18.52;;;8.85;;
68866;SDS011;56451;44.804;20.476;2023-10-13T09:50:23;19.35;;;9.45;;
68866;SDS011;56451;44.804;20.476;2023-10-13T09:52:58;17.58;;;8.63;;
68866;SDS011;56451;44.804;20.476;2023-10-13T09:55:30;18.00;;;8.57;;
68866;SDS011;56451;44.804;20.476;2023-10-13T09:58:03;18.27;;;8.75;;
68866;SDS011;56451;44.804;20.476;2023-10-13T10:00:50;16.63;;;8.25;;
68866;SDS011;56451;44.804;20.476;2023-10-13T10:03:32;18.13;;;9.18;;
68866;SDS011;56451;44.804;20.476;2023-10-13T10:06:01;14.98;;;8.88;;
68866;SDS011;56451;44.804;20.476;2023-10-13T10:08:42;13.97;;;7.67;;
68866;SDS011;56451;44.804;20.476;2023-10-13T10:11:19;14.65;;;7.88;;
68866;SDS011;56451;44.804;20.476;2023-10-13T10:14:03;14.90;;;8.32;;
68866;SDS011;56451;44.804;20.476;2023-10-13T10:19:29;19.13;;;9.38;;
68866;SDS011;56451;44.804;20.476;2023-10-13T10:22:02;18.70;;;8.67;;
68866;SDS011;56451;44.804;20.476;2023-10-13T10:24:43;14.40;;;8.27;;
68866;SDS011;56451;44.804;20.476;2023-10-13T10:27:10;18.77;;;8.82;;
68866;SDS011;56451;44.804;20.476;2023-10-13T10:29:55;19.40;;;8.07;;
68866;SDS011;56451;44.804;20.476;2023-10-13T10:32:31;18.55;;;8.48;;
68866;SDS011;56451;44.804;20.476;2023-10-13T10:35:10;19.30;;;8.87;;
68866;SDS011;56451;44.804;20.476;2023-10-13T10:37:46;17.42;;;9.57;;
68866;SDS011;56451;44.804;20.476;2023-10-13T10:40:15;22.10;;;9.85;;
68866;SDS011;56451;44.804;20.476;2023-10-13T10:43:01;24.85;;;11.13;;
68866;SDS011;56451;44.804;20.476;2023-10-13T10:45:28;14.70;;;9.68;;
68866;SDS011;56451;44.804;20.476;2023-10-13T10:47:58;21.17;;;10.30;;
68866;SDS011;56451;44.804;20.476;2023-10-13T10:50:25;34.58;;;11.38;;
68866;SDS011;56451;44.804;20.476;2023-10-13T10:53:03;24.77;;;10.85;;
68866;SDS011;56451;44.804;20.476;2023-10-13T10:55:37;25.00;;;10.93;;
68866;SDS011;56451;44.804;20.476;2023-10-13T10:58:03;22.85;;;11.80;;
68866;SDS011;56451;44.804;20.476;2023-10-13T11:00:34;24.20;;;10.60;;
68866;SDS011;56451;44.804;20.476;2023-10-13T11:03:15;25.90;;;10.77;;
68866;SDS011;56451;44.804;20.476;2023-10-13T11:05:43;22.55;;;11.43;;
68866;SDS011;56451;44.804;20.476;2023-10-13T11:08:20;20.13;;;10.07;;
68866;SDS011;56451;44.804;20.476;2023-10-13T11:10:59;22.65;;;10.07;;
68866;SDS011;56451;44.804;20.476;2023-10-13T11:13:43;20.73;;;10.40;;
68866;SDS011;56451;44.804;20.476;2023-10-13T11:16:28;20.08;;;10.55;;
68866;SDS011;56451;44.804;20.476;2023-10-13T11:19:03;18.90;;;10.13;;
68866;SDS011;56451;44.804;20.476;2023-10-13T11:21:30;19.20;;;8.85;;
68866;SDS011;56451;44.804;20.476;2023-10-13T11:23:57;21.30;;;8.98;;
68866;SDS011;56451;44.804;20.476;2023-10-13T11:26:34;16.70;;;8.33;;
68866;SDS011;56451;44.804;20.476;2023-10-13T11:29:13;16.80;;;6.97;;
68866;SDS011;56451;44.804;20.476;2023-10-13T11:31:39;14.35;;;6.40;;
68866;SDS011;56451;44.804;20.476;2023-10-13T11:34:09;10.98;;;6.30;;
68866;SDS011;56451;44.804;20.476;2023-10-13T11:36:36;11.60;;;6.13;;
68866;SDS011;56451;44.804;20.476;2023-10-13T11:39:02;10.48;;;5.97;;
68866;SDS011;56451;44.804;20.476;2023-10-13T11:41:33;15.45;;;6.78;;
68866;SDS011;56451;44.804;20.476;2023-10-13T11:44:00;13.00;;;6.28;;
68866;SDS011;56451;44.804;20.476;2023-10-13T11:46:32;13.45;;;6.30;;
68866;SDS011;56451;44.804;20.476;2023-10-13T11:49:05;15.67;;;6.73;;
68866;SDS011;56451;44.804;20.476;2023-10-13T11:51:52;14.07;;;7.43;;
68866;SDS011;56451;44.804;20.476;2023-10-13T11:54:27;14.00;;;7.18;;
68866;SDS011;56451;44.804;20.476;2023-10-13T11:56:53;14.38;;;7.10;;
68866;SDS011;56451;44.804;20.476;2023-10-13T11:59:23;19.67;;;7.53;;
68866;SDS011;56451;44.804;20.476;2023-10-13T12:01:52;17.70;;;6.67;;
68866;SDS011;56451;44.804;20.476;2023-10-13T12:04:37;11.05;;;6.40;;
68866;SDS011;56451;44.804;20.476;2023-10-13T12:07:30;12.63;;;6.32;;
68866;SDS011;56451;44.804;20.476;2023-10-13T12:10:13;12.45;;;6.13;;
68866;SDS011;56451;44.804;20.476;2023-10-13T12:12:59;12.68;;;6.03;;
68866;SDS011;56451;44.804;20.476;2023-10-13T12:15:32;11.93;;;5.87;;
68866;SDS011;56451;44.804;20.476;2023-10-13T12:18:14;11.85;;;5.93;;
68866;SDS011;56451;44.804;20.476;2023-10-13T12:20:40;14.10;;;6.97;;
68866;SDS011;56451;44.804;20.476;2023-10-13T12:23:13;13.02;;;6.70;;
68866;SDS011;56451;44.804;20.476;2023-10-13T12:25:43;12.95;;;6.05;;
68866;SDS011;56451;44.804;20.476;2023-10-13T12:28:25;15.73;;;7.00;;
68866;SDS011;56451;44.804;20.476;2023-10-13T12:30:55;16.20;;;7.30;;
68866;SDS011;56451;44.804;20.476;2023-10-13T12:33:24;18.85;;;8.00;;
68866;SDS011;56451;44.804;20.476;2023-10-13T12:35:55;15.02;;;7.25;;
68866;SDS011;56451;44.804;20.476;2023-10-13T12:38:39;13.60;;;6.55;;
68866;SDS011;56451;44.804;20.476;2023-10-13T12:41:14;17.03;;;8.80;;
68866;SDS011;56451;44.804;20.476;2023-10-13T12:43:59;17.17;;;7.78;;
68866;SDS011;56451;44.804;20.476;2023-10-13T12:46:44;17.58;;;7.68;;
68866;SDS011;56451;44.804;20.476;2023-10-13T12:49:29;14.55;;;7.47;;
68866;SDS011;56451;44.804;20.476;2023-10-13T12:52:07;17.13;;;8.05;;
68866;SDS011;56451;44.804;20.476;2023-10-13T12:54:43;13.13;;;7.77;;
68866;SDS011;56451;44.804;20.476;2023-10-13T12:57:15;17.70;;;8.00;;
68866;SDS011;56451;44.804;20.476;2023-10-13T12:59:42;17.92;;;7.97;;
68866;SDS011;56451;44.804;20.476;2023-10-13T13:02:08;15.32;;;8.07;;
68866;SDS011;56451;44.804;20.476;2023-10-13T13:04:41;19.75;;;7.70;;
68866;SDS011;56451;44.804;20.476;2023-10-13T13:07:10;16.97;;;8.07;;
68866;SDS011;56451;44.804;20.476;2023-10-13T13:09:42;19.08;;;8.73;;
68866;SDS011;56451;44.804;20.476;2023-10-13T13:12:08;20.05;;;8.10;;
68866;SDS011;56451;44.804;20.476;2023-10-13T13:14:38;21.60;;;8.95;;
68866;SDS011;56451;44.804;20.476;2023-10-13T13:17:06;22.65;;;8.75;;
68866;SDS011;56451;44.804;20.476;2023-10-13T13:19:33;18.93;;;8.60;;
68866;SDS011;56451;44.804;20.476;2023-10-13T13:22:04;18.38;;;9.27;;
68866;SDS011;56451;44.804;20.476;2023-10-13T13:24:40;27.33;;;9.43;;
68866;SDS011;56451;44.804;20.476;2023-10-13T13:27:10;19.10;;;8.73;;
68866;SDS011;56451;44.804;20.476;2023-10-13T13:29:43;19.08;;;8.93;;
68866;SDS011;56451;44.804;20.476;2023-10-13T13:32:10;18.50;;;8.40;;
68866;SDS011;56451;44.804;20.476;2023-10-13T13:34:52;16.08;;;9.05;;
68866;SDS011;56451;44.804;20.476;2023-10-13T13:37:44;17.58;;;7.88;;
68866;SDS011;56451;44.804;20.476;2023-10-13T13:40:10;18.60;;;8.85;;
68866;SDS011;56451;44.804;20.476;2023-10-13T13:42:44;21.45;;;8.57;;
68866;SDS011;56451;44.804;20.476;2023-10-13T13:47:53;13.23;;;7.75;;
68866;SDS011;56451;44.804;20.476;2023-10-13T13:50:23;16.15;;;8.70;;
68866;SDS011;56451;44.804;20.476;2023-10-13T13:52:51;16.70;;;7.80;;
68866;SDS011;56451;44.804;20.476;2023-10-13T13:55:19;17.42;;;7.93;;
68866;SDS011;56451;44.804;20.476;2023-10-13T13:57:45;13.43;;;8.10;;
68866;SDS011;56451;44.804;20.476;2023-10-13T14:00:12;14.40;;;7.93;;
68866;SDS011;56451;44.804;20.476;2023-10-13T14:02:57;14.95;;;8.15;;
68866;SDS011;56451;44.804;20.476;2023-10-13T14:05:23;18.02;;;8.23;;
68866;SDS011;56451;44.804;20.476;2023-10-13T14:07:49;13.23;;;7.90;;
68866;SDS011;56451;44.804;20.476;2023-10-13T14:10:18;14.88;;;8.50;;
68866;SDS011;56451;44.804;20.476;2023-10-13T14:13:00;17.70;;;8.65;;
68866;SDS011;56451;44.804;20.476;2023-10-13T14:15:38;18.38;;;8.77;;
68866;SDS011;56451;44.804;20.476;2023-10-13T14:18:10;15.43;;;7.45;;
68866;SDS011;56451;44.804;20.476;2023-10-13T14:20:40;14.57;;;8.27;;
68866;SDS011;56451;44.804;20.476;2023-10-13T14:23:08;14.82;;;8.32;;
68866;SDS011;56451;44.804;20.476;2023-10-13T14:25:37;17.23;;;8.10;;
68866;SDS011;56451;44.804;20.476;2023-10-13T14:28:05;13.82;;;8.48;;
68866;SDS011;56451;44.804;20.476;2023-10-13T14:30:31;17.33;;;8.85;;
68866;SDS011;56451;44.804;20.476;2023-10-13T14:32:57;22.33;;;8.97;;
68866;SDS011;56451;44.804;20.476;2023-10-13T14:35:26;17.67;;;9.32;;
68866;SDS011;56451;44.804;20.476;2023-10-13T14:37:52;20.73;;;9.60;;
68866;SDS011;56451;44.804;20.476;2023-10-13T14:40:18;19.88;;;8.80;;
68866;SDS011;56451;44.804;20.476;2023-10-13T14:42:47;18.02;;;8.98;;
68866;SDS011;56451;44.804;20.476;2023-10-13T14:45:14;19.43;;;8.67;;
68866;SDS011;56451;44.804;20.476;2023-10-13T14:47:42;15.90;;;8.27;;
68866;SDS011;56451;44.804;20.476;2023-10-13T14:50:09;17.17;;;8.93;;
68866;SDS011;56451;44.804;20.476;2023-10-13T14:52:42;14.93;;;8.82;;
68866;SDS011;56451;44.804;20.476;2023-10-13T14:55:09;12.77;;;8.95;;
68866;SDS011;56451;44.804;20.476;2023-10-13T14:57:47;16.77;;;8.63;;
68866;SDS011;56451;44.804;20.476;2023-10-13T15:00:15;19.20;;;9.52;;
68866;SDS011;56451;44.804;20.476;2023-10-13T15:02:53;14.43;;;8.90;;
68866;SDS011;56451;44.804;20.476;2023-10-13T15:05:19;18.58;;;10.32;;
68866;SDS011;56451;44.804;20.476;2023-10-13T15:07:45;18.53;;;10.50;;
68866;SDS011;56451;44.804;20.476;2023-10-13T15:10:14;17.63;;;10.20;;
68866;SDS011;56451;44.804;20.476;2023-10-13T15:12:42;21.77;;;11.20;;
68866;SDS011;56451;44.804;20.476;2023-10-13T15:15:10;19.30;;;10.63;;
68866;SDS011;56451;44.804;20.476;2023-10-13T15:17:47;17.13;;;11.18;;